sensor_id;sensor_type;location;lat;lon;timestamp;pressure;altitude;pressure_sealevel;temperature;humidity
62122;BME280;48108;47.532;19.084;2024-03-22T05:01:20;69770.13;;;11.14;100.00
62122;BME280;48108;47.532;19.084;2024-03-22T05:04:22;69770.13;;;11.14;100.00
62122;BME280;48108;47.532;19.084;2024-03-22T05:07:24;69764.91;;;11.09;100.00
62122;BME280;48108;47.532;19.084;2024-03-22T05:10:26;69764.34;;;11.09;100.00
62122;BME280;48108;47.532;19.084;2024-03-22T05:13:30;69773.41;;;11.15;100.00
62122;BME280;48108;47.532;19.084;2024-03-22T05:16:33;69764.09;;;11.06;100.00
62122;BME280;48108;47.532;19.084;2024-03-22T05:19:35;69770.13;;;11.14;100.00
62122;BME280;48108;47.532;19.084;2024-03-22T05:22:38;69764.44;;;11.04;100.00
62122;BME280;48108;47.532;19.084;2024-03-22T05:25:40;69767.25;;;11.11;100.00
62122;BME280;48108;47.532;19.084;2024-03-22T05:28:44;69772.47;;;11.16;100.00
62122;BME280;48108;47.532;19.084;2024-03-22T05:31:48;69770.13;;;11.14;100.00
62122;BME280;48108;47.532;19.084;2024-03-22T05:34:53;69766.88;;;11.13;100.00
62122;BME280;48108;47.532;19.084;2024-03-22T05:37:55;69780.97;;;11.21;100.00
62122;BME280;48108;47.532;19.084;2024-03-22T05:40:57;69773.63;;;11.17;100.00
62122;BME280;48108;47.532;19.084;2024-03-22T05:43:59;69787.59;;;11.29;100.00
62122;BME280;48108;47.532;19.084;2024-03-22T05:47:01;69778.53;;;11.24;100.00
62122;BME280;48108;47.532;19.084;2024-03-22T05:50:03;69785.84;;;11.28;100.00
62122;BME280;48108;47.532;19.084;2024-03-22T05:53:07;69784.69;;;11.27;100.00
62122;BME280;48108;47.532;19.084;2024-03-22T05:56:08;69795.50;;;11.34;100.00
62122;BME280;48108;47.532;19.084;2024-03-22T05:59:11;69787.84;;;11.32;100.00
62122;BME280;48108;47.532;19.084;2024-03-22T06:02:12;69812.38;;;11.49;100.00
62122;BME280;48108;47.532;19.084;2024-03-22T06:05:15;69821.69;;;11.57;100.00
62122;BME280;48108;47.532;19.084;2024-03-22T06:08:19;69831.56;;;11.66;100.00
62122;BME280;48108;47.532;19.084;2024-03-22T06:11:24;69839.72;;;11.73;100.00
62122;BME280;48108;47.532;19.084;2024-03-22T06:14:26;69846.56;;;11.84;100.00
62122;BME280;48108;47.532;19.084;2024-03-22T06:17:28;69855.34;;;11.91;100.00
62122;BME280;48108;47.532;19.084;2024-03-22T06:20:30;69870.94;;;11.98;100.00
62122;BME280;48108;47.532;19.084;2024-03-22T06:23:33;69871.06;;;12.05;100.00
62122;BME280;48108;47.532;19.084;2024-03-22T06:26:35;69876.84;;;12.10;100.00
62122;BME280;48108;47.532;19.084;2024-03-22T06:29:40;69873.13;;;12.05;100.00
62122;BME280;48108;47.532;19.084;2024-03-22T06:32:41;69878.97;;;12.10;100.00
62122;BME280;48108;47.532;19.084;2024-03-22T06:35:44;69872.31;;;12.01;100.00
62122;BME280;48108;47.532;19.084;2024-03-22T06:38:46;69873.13;;;12.05;100.00
62122;BME280;48108;47.532;19.084;2024-03-22T06:41:48;69898.75;;;12.27;100.00
62122;BME280;48108;47.532;19.084;2024-03-22T06:44:50;69905.38;;;12.35;100.00
62122;BME280;48108;47.532;19.084;2024-03-22T06:47:51;69922.63;;;12.48;100.00
62122;BME280;48108;47.532;19.084;2024-03-22T06:50:54;69947.09;;;12.69;100.00
62122;BME280;48108;47.532;19.084;2024-03-22T06:53:56;69956.16;;;12.75;100.00
62122;BME280;48108;47.532;19.084;2024-03-22T06:56:58;69957.78;;;12.81;100.00
62122;BME280;48108;47.532;19.084;2024-03-22T07:00:00;69964.88;;;12.83;100.00
62122;BME280;48108;47.532;19.084;2024-03-22T07:03:02;69970.94;;;12.90;100.00
62122;BME280;48108;47.532;19.084;2024-03-22T07:06:05;69971.53;;;12.91;100.00
62122;BME280;48108;47.532;19.084;2024-03-22T07:09:09;69951.63;;;12.78;100.00
62122;BME280;48108;47.532;19.084;2024-03-22T07:12:13;69971.28;;;12.88;100.00
62122;BME280;48108;47.532;19.084;2024-03-22T07:15:15;69992.50;;;13.09;100.00
62122;BME280;48108;47.532;19.084;2024-03-22T07:18:18;70008.22;;;13.23;100.00
62122;BME280;48108;47.532;19.084;2024-03-22T07:21:20;70016.41;;;13.30;100.00
62122;BME280;48108;47.532;19.084;2024-03-22T07:24:22;70010.59;;;13.25;100.00
62122;BME280;48108;47.532;19.084;2024-03-22T07:27:25;70027.09;;;13.42;99.21
62122;BME280;48108;47.532;19.084;2024-03-22T07:30:31;70042.38;;;13.51;97.59
62122;BME280;48108;47.532;19.084;2024-03-22T07:33:33;70053.47;;;13.60;97.74
62122;BME280;48108;47.532;19.084;2024-03-22T07:36:38;70071.75;;;13.79;96.36
62122;BME280;48108;47.532;19.084;2024-03-22T07:39:40;70068.84;;;13.76;93.97
62122;BME280;48108;47.532;19.084;2024-03-22T07:42:42;70056.81;;;13.68;94.44
62122;BME280;48108;47.532;19.084;2024-03-22T07:45:44;70049.59;;;13.59;94.79
62122;BME280;48108;47.532;19.084;2024-03-22T07:48:46;70046.69;;;13.57;94.15
62122;BME280;48108;47.532;19.084;2024-03-22T07:51:48;70047.88;;;13.58;95.38
62122;BME280;48108;47.532;19.084;2024-03-22T07:54:50;70055.66;;;13.67;93.62
62122;BME280;48108;47.532;19.084;2024-03-22T07:57:52;70075.25;;;13.82;92.34
62122;BME280;48108;47.532;19.084;2024-03-22T08:00:54;70061.84;;;13.70;91.79
62122;BME280;48108;47.532;19.084;2024-03-22T08:03:56;70080.50;;;13.87;91.24
62122;BME280;48108;47.532;19.084;2024-03-22T08:06:58;70095.66;;;14.00;90.92
62122;BME280;48108;47.532;19.084;2024-03-22T08:10:00;70098.56;;;14.02;88.28
62122;BME280;48108;47.532;19.084;2024-03-22T08:13:03;70106.13;;;14.09;87.29
62122;BME280;48108;47.532;19.084;2024-03-22T08:16:05;70104.41;;;14.07;87.04
62122;BME280;48108;47.532;19.084;2024-03-22T08:19:07;70110.81;;;14.13;86.59
62122;BME280;48108;47.532;19.084;2024-03-22T08:22:10;70111.16;;;14.11;85.73
62122;BME280;48108;47.532;19.084;2024-03-22T08:25:12;70111.97;;;14.14;86.97
62122;BME280;48108;47.532;19.084;2024-03-22T08:28:14;70116.63;;;14.18;85.00
62122;BME280;48108;47.532;19.084;2024-03-22T08:31:17;70112.22;;;14.17;84.31
62122;BME280;48108;47.532;19.084;2024-03-22T08:34:21;70134.72;;;14.34;84.14
62122;BME280;48108;47.532;19.084;2024-03-22T08:37:22;70140.91;;;14.37;83.07
62122;BME280;48108;47.532;19.084;2024-03-22T08:40:25;70162.50;;;14.56;81.44
62122;BME280;48108;47.532;19.084;2024-03-22T08:43:26;70159.56;;;14.54;81.43
62122;BME280;48108;47.532;19.084;2024-03-22T08:46:31;70150.81;;;14.46;81.49
62122;BME280;48108;47.532;19.084;2024-03-22T08:49:33;70174.63;;;14.71;80.05
62122;BME280;48108;47.532;19.084;2024-03-22T08:52:38;70233.69;;;15.18;76.68
62122;BME280;48108;47.532;19.084;2024-03-22T08:55:46;70280.78;;;15.64;74.11
62122;BME280;48108;47.532;19.084;2024-03-22T08:58:49;70318.53;;;15.95;72.33
62122;BME280;48108;47.532;19.084;2024-03-22T09:01:52;70345.97;;;16.19;69.11
62122;BME280;48108;47.532;19.084;2024-03-22T09:04:54;70377.88;;;16.45;66.83
62122;BME280;48108;47.532;19.084;2024-03-22T09:07:57;70433.19;;;16.91;64.70
62122;BME280;48108;47.532;19.084;2024-03-22T09:10:59;70464.00;;;17.22;62.24
62122;BME280;48108;47.532;19.084;2024-03-22T09:14:01;70482.50;;;17.36;60.93
62122;BME280;48108;47.532;19.084;2024-03-22T09:17:03;70460.66;;;17.15;61.20
62122;BME280;48108;47.532;19.084;2024-03-22T09:20:05;70444.50;;;17.03;61.84
62122;BME280;48108;47.532;19.084;2024-03-22T09:23:09;70430.50;;;16.91;61.62
62122;BME280;48108;47.532;19.084;2024-03-22T09:26:11;70455.25;;;17.15;61.99
62122;BME280;48108;47.532;19.084;2024-03-22T09:29:13;70445.31;;;17.06;61.62
62122;BME280;48108;47.532;19.084;2024-03-22T09:32:15;70476.88;;;17.34;60.47
62122;BME280;48108;47.532;19.084;2024-03-22T09:35:17;70481.34;;;17.35;60.00
62122;BME280;48108;47.532;19.084;2024-03-22T09:38:19;70511.72;;;17.62;59.11
62122;BME280;48108;47.532;19.084;2024-03-22T09:41:24;70533.38;;;17.81;57.59
62122;BME280;48108;47.532;19.084;2024-03-22T09:44:27;70548.59;;;17.94;57.63
62122;BME280;48108;47.532;19.084;2024-03-22T09:47:30;70565.53;;;18.09;56.47
62122;BME280;48108;47.532;19.084;2024-03-22T09:50:32;70535.72;;;17.83;57.28
62122;BME280;48108;47.532;19.084;2024-03-22T09:53:35;70552.09;;;17.97;57.05
62122;BME280;48108;47.532;19.084;2024-03-22T09:56:42;70547.03;;;17.95;57.66
62122;BME280;48108;47.532;19.084;2024-03-22T09:59:45;70575.72;;;18.20;57.31
62122;BME280;48108;47.532;19.084;2024-03-22T10:02:48;70584.47;;;18.28;55.83
62122;BME280;48108;47.532;19.084;2024-03-22T10:05:51;70581.34;;;18.23;55.94
62122;BME280;48108;47.532;19.084;2024-03-22T10:08:52;70587.78;;;18.28;55.54
62122;BME280;48108;47.532;19.084;2024-03-22T10:11:56;70595.00;;;18.37;55.52
62122;BME280;48108;47.532;19.084;2024-03-22T10:14:58;70571.97;;;18.15;55.93
62122;BME280;48108;47.532;19.084;2024-03-22T10:18:00;70598.88;;;18.38;55.42
62122;BME280;48108;47.532;19.084;2024-03-22T10:21:03;70646.28;;;18.79;55.55
62122;BME280;48108;47.532;19.084;2024-03-22T10:24:07;70640.44;;;18.74;52.71
62122;BME280;48108;47.532;19.084;2024-03-22T10:27:09;70672.03;;;19.02;52.12
62122;BME280;48108;47.532;19.084;2024-03-22T10:30:12;70690.19;;;19.18;51.25
62122;BME280;48108;47.532;19.084;2024-03-22T10:33:18;70688.78;;;19.14;52.23
62122;BME280;48108;47.532;19.084;2024-03-22T10:36:21;70699.56;;;19.26;51.67
62122;BME280;48108;47.532;19.084;2024-03-22T10:39:24;70666.19;;;18.97;51.98
62122;BME280;48108;47.532;19.084;2024-03-22T10:42:28;70680.81;;;19.10;50.15
62122;BME280;48108;47.532;19.084;2024-03-22T10:45:30;70686.09;;;19.14;50.25
62122;BME280;48108;47.532;19.084;2024-03-22T10:48:33;70660.72;;;18.90;51.62
62122;BME280;48108;47.532;19.084;2024-03-22T10:51:35;70681.25;;;19.15;50.65
62122;BME280;48108;47.532;19.084;2024-03-22T10:54:40;70665.03;;;18.96;51.88
62122;BME280;48108;47.532;19.084;2024-03-22T10:57:46;70682.56;;;19.11;51.11
62122;BME280;48108;47.532;19.084;2024-03-22T11:00:52;70664.88;;;19.00;49.95
62122;BME280;48108;47.532;19.084;2024-03-22T11:04:04;70667.16;;;18.95;49.80
62122;BME280;48108;47.532;19.084;2024-03-22T11:07:08;70702.84;;;19.26;49.94
62122;BME280;48108;47.532;19.084;2024-03-22T11:10:13;70754.22;;;19.76;47.49
62122;BME280;48108;47.532;19.084;2024-03-22T11:13:17;70710.31;;;19.38;46.30
62122;BME280;48108;47.532;19.084;2024-03-22T11:16:19;70727.63;;;19.51;46.22
62122;BME280;48108;47.532;19.084;2024-03-22T11:19:22;70748.16;;;19.68;46.03
62122;BME280;48108;47.532;19.084;2024-03-22T11:22:25;70706.34;;;19.30;47.67
62122;BME280;48108;47.532;19.084;2024-03-22T11:25:28;70665.59;;;18.96;47.94
62122;BME280;48108;47.532;19.084;2024-03-22T11:28:30;70691.78;;;19.24;47.88
62122;BME280;48108;47.532;19.084;2024-03-22T11:31:33;70741.72;;;19.63;47.00
62122;BME280;48108;47.532;19.084;2024-03-22T11:34:41;70788.38;;;20.01;46.30
62122;BME280;48108;47.532;19.084;2024-03-22T11:37:43;70792.28;;;20.09;45.29
62122;BME280;48108;47.532;19.084;2024-03-22T11:40:46;70786.00;;;19.99;44.96
62122;BME280;48108;47.532;19.084;2024-03-22T11:43:49;70836.03;;;20.45;43.31
62122;BME280;48108;47.532;19.084;2024-03-22T11:46:53;70837.41;;;20.49;42.23
62122;BME280;48108;47.532;19.084;2024-03-22T11:49:55;70867.69;;;20.73;41.65
62122;BME280;48108;47.532;19.084;2024-03-22T11:52:57;70949.19;;;21.44;39.45
62122;BME280;48108;47.532;19.084;2024-03-22T11:56:00;70994.34;;;21.83;39.24
62122;BME280;48108;47.532;19.084;2024-03-22T11:59:02;70989.06;;;21.79;38.22
62122;BME280;48108;47.532;19.084;2024-03-22T12:02:05;71014.06;;;21.98;37.33
62122;BME280;48108;47.532;19.084;2024-03-22T12:05:10;71019.56;;;22.05;36.58
62122;BME280;48108;47.532;19.084;2024-03-22T12:08:14;71024.47;;;22.12;37.09
62122;BME280;48108;47.532;19.084;2024-03-22T12:11:16;70995.28;;;21.82;37.08
62122;BME280;48108;47.532;19.084;2024-03-22T12:14:19;70950.72;;;21.43;38.48
62122;BME280;48108;47.532;19.084;2024-03-22T12:17:21;70910.84;;;21.08;39.26
62122;BME280;48108;47.532;19.084;2024-03-22T12:20:23;70876.25;;;20.78;39.51
62122;BME280;48108;47.532;19.084;2024-03-22T12:23:25;70880.00;;;20.83;39.79
62122;BME280;48108;47.532;19.084;2024-03-22T12:26:30;70827.81;;;20.38;40.39
62122;BME280;48108;47.532;19.084;2024-03-22T12:29:33;70847.75;;;20.55;40.34
62122;BME280;48108;47.532;19.084;2024-03-22T12:32:35;70889.53;;;20.87;40.38
62122;BME280;48108;47.532;19.084;2024-03-22T12:35:39;70870.03;;;20.75;40.31
62122;BME280;48108;47.532;19.084;2024-03-22T12:38:41;70856.78;;;20.66;40.78
62122;BME280;48108;47.532;19.084;2024-03-22T12:41:43;70886.81;;;20.87;40.57
62122;BME280;48108;47.532;19.084;2024-03-22T12:44:45;70853.63;;;20.60;41.20
62122;BME280;48108;47.532;19.084;2024-03-22T12:47:47;70886.81;;;20.87;40.65
62122;BME280;48108;47.532;19.084;2024-03-22T12:50:49;70837.41;;;20.49;39.98
62122;BME280;48108;47.532;19.084;2024-03-22T12:53:51;70785.66;;;20.01;41.27
62122;BME280;48108;47.532;19.084;2024-03-22T12:56:54;70791.50;;;20.06;42.66
62122;BME280;48108;47.532;19.084;2024-03-22T12:59:57;70726.84;;;19.47;42.78
62122;BME280;48108;47.532;19.084;2024-03-22T13:02:59;70743.81;;;19.62;41.86
62122;BME280;48108;47.532;19.084;2024-03-22T13:06:01;70722.16;;;19.43;41.80
62122;BME280;48108;47.532;19.084;2024-03-22T13:09:03;70718.44;;;19.38;42.30
62122;BME280;48108;47.532;19.084;2024-03-22T13:12:07;70762.22;;;19.81;41.64
62122;BME280;48108;47.532;19.084;2024-03-22T13:15:09;70783.88;;;20.00;41.22
62122;BME280;48108;47.532;19.084;2024-03-22T13:18:11;70827.59;;;20.35;40.91
62122;BME280;48108;47.532;19.084;2024-03-22T13:21:13;70859.72;;;20.68;40.95
62122;BME280;48108;47.532;19.084;2024-03-22T13:24:15;70828.03;;;20.41;41.05
62122;BME280;48108;47.532;19.084;2024-03-22T13:27:17;70846.13;;;20.49;40.99
62122;BME280;48108;47.532;19.084;2024-03-22T13:30:19;70920.59;;;21.14;39.16
62122;BME280;48108;47.532;19.084;2024-03-22T13:33:21;70908.50;;;21.06;39.30
62122;BME280;48108;47.532;19.084;2024-03-22T13:36:23;70886.44;;;20.89;39.46
62122;BME280;48108;47.532;19.084;2024-03-22T13:39:27;70842.63;;;20.46;40.35
62122;BME280;48108;47.532;19.084;2024-03-22T13:42:31;70823.13;;;20.34;39.85
62122;BME280;48108;47.532;19.084;2024-03-22T13:45:39;70965.81;;;21.61;37.58
62122;BME280;48108;47.532;19.084;2024-03-22T13:48:43;71202.09;;;23.57;34.24
62122;BME280;48108;47.532;19.084;2024-03-22T13:51:45;71338.47;;;24.83;31.78
62122;BME280;48108;47.532;19.084;2024-03-22T13:54:48;71211.94;;;23.70;33.79
62122;BME280;48108;47.532;19.084;2024-03-22T13:57:51;71178.06;;;23.43;34.24
62122;BME280;48108;47.532;19.084;2024-03-22T14:00:53;71131.84;;;22.98;35.23
62122;BME280;48108;47.532;19.084;2024-03-22T14:03:55;70992.38;;;21.79;37.27
62122;BME280;48108;47.532;19.084;2024-03-22T14:06:58;71148.13;;;23.17;35.39
62122;BME280;48108;47.532;19.084;2024-03-22T14:10:00;71322.41;;;24.66;32.80
62122;BME280;48108;47.532;19.084;2024-03-22T14:13:02;71173.38;;;23.39;33.73
62122;BME280;48108;47.532;19.084;2024-03-22T14:16:05;71172.94;;;23.34;33.40
62122;BME280;48108;47.532;19.084;2024-03-22T14:19:09;71308.31;;;24.54;31.87
62122;BME280;48108;47.532;19.084;2024-03-22T14:22:11;71531.41;;;26.43;29.15
62122;BME280;48108;47.532;19.084;2024-03-22T14:25:13;71459.06;;;25.88;29.15
62122;BME280;48108;47.532;19.084;2024-03-22T14:28:15;71348.66;;;24.87;30.55
62122;BME280;48108;47.532;19.084;2024-03-22T14:31:17;71302.22;;;24.47;31.06
62122;BME280;48108;47.532;19.084;2024-03-22T14:34:19;71309.28;;;24.53;30.95
62122;BME280;48108;47.532;19.084;2024-03-22T14:37:21;71399.25;;;25.31;30.21
62122;BME280;48108;47.532;19.084;2024-03-22T14:40:23;71298.13;;;24.43;30.80
62122;BME280;48108;47.532;19.084;2024-03-22T14:43:26;71125.38;;;22.93;33.21
62122;BME280;48108;47.532;19.084;2024-03-22T14:46:28;71023.84;;;22.04;35.22
62122;BME280;48108;47.532;19.084;2024-03-22T14:49:30;70931.56;;;21.28;35.81
62122;BME280;48108;47.532;19.084;2024-03-22T14:52:32;70825.84;;;20.34;37.77
62122;BME280;48108;47.532;19.084;2024-03-22T14:55:34;70718.28;;;19.42;39.26
62122;BME280;48108;47.532;19.084;2024-03-22T14:58:38;70694.66;;;19.19;40.02
62122;BME280;48108;47.532;19.084;2024-03-22T15:01:40;70622.06;;;18.56;41.69
62122;BME280;48108;47.532;19.084;2024-03-22T15:04:42;70583.88;;;18.27;42.57
62122;BME280;48108;47.532;19.084;2024-03-22T15:07:45;70575.84;;;18.16;42.91
62122;BME280;48108;47.532;19.084;2024-03-22T15:10:49;70512.53;;;17.65;43.36
62122;BME280;48108;47.532;19.084;2024-03-22T15:13:51;70500.03;;;17.52;43.72
62122;BME280;48108;47.532;19.084;2024-03-22T15:16:53;70472.78;;;17.30;44.86
62122;BME280;48108;47.532;19.084;2024-03-22T15:19:54;70447.06;;;17.08;46.12
62122;BME280;48108;47.532;19.084;2024-03-22T15:22:57;70437.84;;;16.95;46.89
62122;BME280;48108;47.532;19.084;2024-03-22T15:25:59;70406.88;;;16.68;47.10
62122;BME280;48108;47.532;19.084;2024-03-22T15:29:01;70393.06;;;16.58;47.47
62122;BME280;48108;47.532;19.084;2024-03-22T15:32:03;70394.25;;;16.59;47.27
62122;BME280;48108;47.532;19.084;2024-03-22T15:35:06;70386.06;;;16.52;46.58
62122;BME280;48108;47.532;19.084;2024-03-22T15:38:09;70388.03;;;16.56;46.47
62122;BME280;48108;47.532;19.084;2024-03-22T15:41:11;70379.50;;;16.51;46.19
62122;BME280;48108;47.532;19.084;2024-03-22T15:44:13;70388.97;;;16.54;45.25
62122;BME280;48108;47.532;19.084;2024-03-22T15:47:15;70369.13;;;16.37;45.19
62122;BME280;48108;47.532;19.084;2024-03-22T15:50:17;70353.13;;;16.21;45.26
62122;BME280;48108;47.532;19.084;2024-03-22T15:53:19;70334.91;;;16.09;45.69
62122;BME280;48108;47.532;19.084;2024-03-22T15:56:21;70328.81;;;16.02;47.15
62122;BME280;48108;47.532;19.084;2024-03-22T15:59:23;70314.47;;;15.92;46.58
62122;BME280;48108;47.532;19.084;2024-03-22T16:02:25;70303.72;;;15.80;48.44
62122;BME280;48108;47.532;19.084;2024-03-22T16:05:27;70308.97;;;15.84;47.95
62122;BME280;48108;47.532;19.084;2024-03-22T16:08:29;70290.88;;;15.69;48.04
62122;BME280;48108;47.532;19.084;2024-03-22T16:11:32;70287.38;;;15.65;49.30
62122;BME280;48108;47.532;19.084;2024-03-22T16:14:34;70281.53;;;15.60;50.09
62122;BME280;48108;47.532;19.084;2024-03-22T16:17:36;70261.31;;;15.45;50.71
62122;BME280;48108;47.532;19.084;2024-03-22T16:20:38;70248.84;;;15.32;51.62
62122;BME280;48108;47.532;19.084;2024-03-22T16:23:40;70239.16;;;15.26;52.53
62122;BME280;48108;47.532;19.084;2024-03-22T16:26:42;70245.56;;;15.31;53.57
62122;BME280;48108;47.532;19.084;2024-03-22T16:29:44;70227.69;;;15.18;54.20
62122;BME280;48108;47.532;19.084;2024-03-22T16:32:46;70222.22;;;15.11;54.18
62122;BME280;48108;47.532;19.084;2024-03-22T16:35:47;70209.97;;;15.00;52.23
62122;BME280;48108;47.532;19.084;2024-03-22T16:38:49;70206.84;;;14.95;51.90
62122;BME280;48108;47.532;19.084;2024-03-22T16:41:51;70204.50;;;14.93;51.50
62122;BME280;48108;47.532;19.084;2024-03-22T16:44:54;70200.41;;;14.89;50.11
62122;BME280;48108;47.532;19.084;2024-03-22T16:47:57;70181.63;;;14.78;51.19
62122;BME280;48108;47.532;19.084;2024-03-22T16:50:58;70174.75;;;14.67;51.43
62122;BME280;48108;47.532;19.084;2024-03-22T16:54:01;70159.56;;;14.54;52.22
62122;BME280;48108;47.532;19.084;2024-03-22T16:57:02;70141.47;;;14.38;52.72
